Time;durP1;ratioP1;P1;durP2;ratioP2;P2;SDS_P1;SDS_P2;PMS_P1;PMS_P2;Temp;Humidity;BMP_temperature;BMP_pressure;BME280_temperature;BME280_humidity;BME280_pressure;Samples;Min_cycle;Max_cycle;Signal;HPM_P1;HPM_P2
2022/04/17 00:01:37;;;;;;;11.33;9.30;;;8.30;1.00;;;;;;2617569;47;20455;-80
2022/04/17 00:04:03;;;;;;;13.07;9.23;;;8.30;1.00;;;;;;2617385;54;20534;-81
2022/04/17 00:06:29;;;;;;;9.67;8.80;;;8.20;1.00;;;;;;2618276;47;20927;-81
2022/04/17 00:08:57;;;;;;;10.90;9.93;;;8.10;1.00;;;;;;2618268;47;20382;-80
2022/04/17 00:11:46;;;;;;;10.60;9.63;;;8.00;1.00;;;;;;2618647;39;20575;-81
2022/04/17 00:14:12;;;;;;;10.33;9.20;;;8.00;1.00;;;;;;2617360;47;20402;-81
2022/04/17 00:16:40;;;;;;;10.47;9.47;;;7.90;1.00;;;;;;2617684;39;20920;-80
2022/04/17 00:19:09;;;;;;;11.07;9.70;;;7.90;1.00;;;;;;2617266;54;20149;-81
2022/04/17 00:21:35;;;;;;;10.90;9.80;;;7.80;1.00;;;;;;2617467;47;21163;-80
2022/04/17 00:24:02;;;;;;;11.03;10.03;;;7.50;1.00;;;;;;2617421;54;20501;-81
2022/04/17 00:26:27;;;;;;;10.37;9.47;;;7.30;3.30;;;;;;2617728;47;20406;-81
2022/04/17 00:28:54;;;;;;;14.90;10.47;;;7.40;6.10;;;;;;2618159;39;20839;-79
2022/04/17 00:31:20;;;;;;;10.33;9.43;;;7.20;6.60;;;;;;2617156;46;20163;-81
2022/04/17 00:33:46;;;;;;;11.70;10.53;;;7.10;7.40;;;;;;2617536;39;20941;-80
2022/04/17 00:36:12;;;;;;;11.50;10.00;;;7.00;10.00;;;;;;2617334;54;20179;-81
2022/04/17 00:38:39;;;;;;;10.87;9.80;;;6.80;13.20;;;;;;2617396;46;20168;-82
2022/04/17 00:41:05;;;;;;;11.00;10.00;;;6.80;13.70;;;;;;2617548;54;20376;-81
2022/04/17 00:43:34;;;;;;;11.87;10.03;;;6.60;15.90;;;;;;2617250;47;20460;-81
2022/04/17 00:46:00;;;;;;;11.13;10.03;;;6.60;16.60;;;;;;2617393;54;20672;-81
2022/04/17 00:48:26;;;;;;;11.37;9.93;;;6.70;17.10;;;;;;2617050;47;20510;-80
2022/04/17 00:50:54;;;;;;;11.40;10.17;;;6.70;13.00;;;;;;2617540;46;20937;-81
2022/04/17 00:53:21;;;;;;;13.47;10.00;;;6.70;12.30;;;;;;2618096;54;20464;-82
2022/04/17 00:55:51;;;;;;;9.33;8.60;;;6.70;10.30;;;;;;2617948;47;20392;-80
2022/04/17 00:58:44;;;;;;;10.70;9.70;;;6.70;10.60;;;;;;2618165;46;20394;-80
2022/04/17 01:01:10;;;;;;;10.40;9.30;;;6.60;15.30;;;;;;2617294;39;20470;-81
2022/04/17 01:03:35;;;;;;;9.83;8.90;;;6.60;16.40;;;;;;2617031;54;20457;-81
2022/04/17 01:06:01;;;;;;;10.50;9.60;;;6.60;12.30;;;;;;2617794;39;20652;-80
2022/04/17 01:08:27;;;;;;;12.83;10.63;;;6.40;14.30;;;;;;2616985;54;20149;-80
2022/04/17 01:10:53;;;;;;;10.40;9.40;;;6.40;14.40;;;;;;2616721;47;21024;-80
2022/04/17 01:13:19;;;;;;;9.23;8.27;;;6.20;19.00;;;;;;2616621;47;20409;-80
2022/04/17 01:15:45;;;;;;;9.80;8.80;;;6.20;21.70;;;;;;2616384;54;20172;-80
2022/04/17 01:18:12;;;;;;;13.63;9.97;;;6.10;23.70;;;;;;2616651;47;20528;-80
2022/04/17 01:20:38;;;;;;;10.07;8.33;;;6.20;25.30;;;;;;2616675;47;20837;-80
2022/04/17 01:28:33;;;;;;;10.17;9.13;;;6.10;26.00;;;;;;2616632;54;20935;-80
2022/04/17 01:31:02;;;;;;;10.00;9.10;;;6.10;27.80;;;;;;2616643;47;20471;-82
2022/04/17 01:33:30;;;;;;;8.90;8.00;;;5.90;30.70;;;;;;2616744;47;20175;-80
2022/04/17 01:35:57;;;;;;;9.40;8.40;;;5.80;33.00;;;;;;2616781;54;20421;-81
2022/04/17 01:38:22;;;;;;;12.70;8.70;;;5.80;36.40;;;;;;2618232;47;20963;-81
2022/04/17 01:40:49;;;;;;;9.00;8.33;;;5.70;38.90;;;;;;2621969;47;20414;-83
2022/04/17 01:43:16;;;;;;;15.20;8.17;;;5.70;41.50;;;;;;2622075;54;20722;-79
2022/04/17 01:45:46;;;;;;;10.80;8.97;;;5.70;39.90;;;;;;2621473;39;20788;-81
2022/04/17 01:48:48;;;;;;;11.03;9.10;;;5.60;38.70;;;;;;2622528;54;20403;-81
2022/04/17 01:51:14;;;;;;;16.70;9.83;;;5.50;44.60;;;;;;2620665;39;20815;-81
2022/04/17 01:53:40;;;;;;;11.70;10.43;;;5.40;48.60;;;;;;2617140;47;20399;-82
2022/04/17 01:56:05;;;;;;;11.00;8.40;;;5.20;53.90;;;;;;2616653;54;20156;-80
2022/04/17 01:58:31;;;;;;;12.70;9.97;;;5.20;56.60;;;;;;2616650;46;20171;-80
2022/04/17 02:00:57;;;;;;;12.20;10.10;;;5.20;62.60;;;;;;2616121;46;20181;-80
2022/04/17 02:03:23;;;;;;;12.20;9.27;;;5.30;58.30;;;;;;2616681;39;20950;-80
2022/04/17 02:05:50;;;;;;;8.70;7.80;;;5.10;57.60;;;;;;2616595;39;20512;-80
2022/04/17 02:08:16;;;;;;;9.80;8.90;;;5.20;57.50;;;;;;2616317;39;20588;-81
2022/04/17 02:10:42;;;;;;;11.33;10.13;;;5.20;53.60;;;;;;2616212;47;20402;-80
2022/04/17 02:13:09;;;;;;;12.33;9.40;;;5.40;51.70;;;;;;2616286;47;20151;-80
2022/04/17 02:15:34;;;;;;;10.47;9.37;;;5.30;52.60;;;;;;2616297;54;20214;-81
2022/04/17 02:18:00;;;;;;;10.20;9.20;;;5.30;50.90;;;;;;2616714;39;20749;-81
2022/04/17 02:20:26;;;;;;;11.40;10.20;;;5.30;50.10;;;;;;2616217;47;20252;-80
2022/04/17 02:22:52;;;;;;;9.87;8.50;;;5.20;53.90;;;;;;2616205;47;20411;-80
2022/04/17 02:25:18;;;;;;;10.70;9.60;;;5.10;58.40;;;;;;2616898;31;20892;-80
2022/04/17 02:27:45;;;;;;;10.03;9.03;;;5.10;60.40;;;;;;2617966;31;20622;-80
2022/04/17 02:30:11;;;;;;;9.47;8.47;;;5.00;63.20;;;;;;2616759;54;20223;-81
2022/04/17 02:32:36;;;;;;;13.20;8.83;;;5.00;64.40;;;;;;2616909;47;20428;-80
2022/04/17 02:35:03;;;;;;;10.23;9.10;;;4.90;66.80;;;;;;2617206;54;20489;-81
2022/04/17 02:37:28;;;;;;;10.50;9.50;;;4.90;67.10;;;;;;2617152;47;20198;-79
2022/04/17 02:39:56;;;;;;;14.80;10.67;;;4.80;72.40;;;;;;2617190;47;20416;-81
2022/04/17 02:42:22;;;;;;;11.77;8.63;;;4.70;73.80;;;;;;2617735;54;20143;-80
2022/04/17 02:44:47;;;;;;;12.27;8.60;;;4.70;75.10;;;;;;2617149;47;20462;-80
2022/04/17 02:49:59;;;;;;;9.90;8.90;;;4.70;76.10;;;;;;2617737;39;20491;-79
2022/04/17 02:52:26;;;;;;;9.77;8.87;;;4.60;78.80;;;;;;2617084;47;20950;-79
2022/04/17 02:54:53;;;;;;;9.40;8.50;;;4.70;78.40;;;;;;2616904;54;20406;-79
2022/04/17 02:57:20;;;;;;;10.87;9.17;;;4.50;80.30;;;;;;2616854;54;20413;-80
2022/04/17 02:59:46;;;;;;;9.93;8.50;;;4.50;82.00;;;;;;2617045;47;20480;-81
2022/04/17 03:07:41;;;;;;;10.70;9.60;;;4.40;85.30;;;;;;2617528;39;20742;-80
2022/04/17 03:10:07;;;;;;;13.57;9.50;;;4.30;88.00;;;;;;2616746;47;20488;-80
2022/04/17 03:12:37;;;;;;;11.90;9.67;;;4.30;92.00;;;;;;2617455;39;20766;-80
2022/04/17 03:15:04;;;;;;;13.23;9.90;;;4.20;95.00;;;;;;2616759;47;20458;-80
2022/04/17 03:17:31;;;;;;;11.77;9.60;;;4.20;97.20;;;;;;2616736;54;20378;-80
2022/04/17 03:19:57;;;;;;;12.47;10.60;;;4.20;97.90;;;;;;2617058;54;20387;-79
2022/04/17 03:22:25;;;;;;;11.17;9.90;;;4.20;98.70;;;;;;2617251;31;20852;-80
2022/04/17 03:24:51;;;;;;;14.90;11.47;;;4.20;96.90;;;;;;2616901;54;20416;-81
2022/04/17 03:27:18;;;;;;;10.90;9.90;;;4.20;96.90;;;;;;2616653;47;20946;-81
2022/04/17 03:29:45;;;;;;;12.00;9.73;;;4.20;96.60;;;;;;2616948;46;20406;-81
2022/04/17 03:32:11;;;;;;;12.70;10.53;;;4.10;95.90;;;;;;2616638;54;21042;-81
2022/04/17 03:34:37;;;;;;;14.63;10.10;;;4.10;97.00;;;;;;2616613;54;20415;-80
2022/04/17 03:37:04;;;;;;;12.60;11.17;;;4.10;97.60;;;;;;2617322;54;20430;-80
2022/04/17 03:39:31;;;;;;;12.60;10.73;;;4.10;97.90;;;;;;2617788;39;20811;-81
2022/04/17 03:41:57;;;;;;;16.10;11.50;;;4.10;96.60;;;;;;2617047;46;20543;-79
2022/04/17 03:44:23;;;;;;;13.13;11.83;;;3.90;98.10;;;;;;2617239;51;20400;-80
2022/04/17 03:46:51;;;;;;;13.30;10.90;;;3.90;99.10;;;;;;2617367;54;21014;-80
2022/04/17 03:49:17;;;;;;;16.50;12.57;;;3.80;99.90;;;;;;2617880;39;20810;-80
2022/04/17 03:51:43;;;;;;;14.20;11.90;;;3.70;99.90;;;;;;2617392;51;20506;-81
2022/04/17 03:54:09;;;;;;;13.87;11.10;;;3.70;99.90;;;;;;2617709;54;20708;-82
2022/04/17 03:56:36;;;;;;;14.30;11.67;;;3.80;99.90;;;;;;2618042;39;20553;-80
2022/04/17 03:59:02;;;;;;;12.60;11.30;;;3.80;99.90;;;;;;2617353;47;20485;-80
2022/04/17 04:01:28;;;;;;;14.47;11.77;;;3.80;99.90;;;;;;2617586;47;20395;-81
2022/04/17 04:03:55;;;;;;;15.70;11.30;;;3.70;99.90;;;;;;2617300;54;20433;-80
2022/04/17 04:06:21;;;;;;;13.13;11.70;;;3.70;99.90;;;;;;2617461;54;20475;-80
2022/04/17 04:08:50;;;;;;;13.77;12.17;;;3.80;99.90;;;;;;2617684;54;20478;-79
2022/04/17 04:11:17;;;;;;;14.50;11.90;;;3.70;99.90;;;;;;2617593;54;20383;-80
2022/04/17 04:13:43;;;;;;;12.73;11.47;;;3.60;99.90;;;;;;2617223;47;20398;-81
2022/04/17 04:16:10;;;;;;;13.70;12.30;;;3.50;99.90;;;;;;2617139;46;20407;-82
2022/04/17 04:18:37;;;;;;;17.10;10.73;;;3.50;99.90;;;;;;2617368;54;20411;-81
2022/04/17 04:21:03;;;;;;;20.07;12.50;;;3.50;99.90;;;;;;2617001;54;20418;-80
2022/04/17 04:23:34;;;;;;;12.37;11.07;;;3.60;99.90;;;;;;2617323;54;20549;-81
2022/04/17 04:26:01;;;;;;;13.77;11.47;;;3.60;99.90;;;;;;2618101;39;20818;-79
2022/04/17 04:28:50;;;;;;;17.60;12.27;;;3.70;99.90;;;;;;2617718;39;20815;-81
2022/04/17 04:31:16;;;;;;;22.87;12.50;;;3.80;99.90;;;;;;2616433;47;20559;-80
2022/04/17 04:33:43;;;;;;;12.73;11.40;;;3.70;99.90;;;;;;2616303;54;20396;-81
2022/04/17 04:36:14;;;;;;;13.53;10.50;;;3.50;99.90;;;;;;2616497;46;20163;-80
2022/04/17 04:38:40;;;;;;;14.70;11.30;;;3.40;99.90;;;;;;2616595;46;20880;-80
2022/04/17 04:41:07;;;;;;;16.47;11.33;;;3.40;99.90;;;;;;2616304;47;20430;-80
2022/04/17 04:43:32;;;;;;;15.37;12.90;;;3.40;99.90;;;;;;2615957;51;20427;-81
2022/04/17 04:46:07;;;;;;;16.90;13.40;;;3.40;99.90;;;;;;2616995;31;20907;-80
2022/04/17 04:51:26;;;;;;;13.70;12.23;;;3.30;99.90;;;;;;2616415;54;20482;-80
2022/04/17 04:53:54;;;;;;;19.13;12.13;;;3.20;99.90;;;;;;2616031;54;20419;-80
2022/04/17 04:56:21;;;;;;;19.77;12.57;;;3.10;99.90;;;;;;2616321;54;20396;-81
2022/04/17 04:58:47;;;;;;;14.47;11.83;;;3.30;99.90;;;;;;2616066;54;20400;-80
2022/04/17 05:01:13;;;;;;;14.17;10.80;;;3.50;99.90;;;;;;2616314;39;20966;-80
2022/04/17 05:03:39;;;;;;;17.80;12.30;;;3.60;99.90;;;;;;2616307;54;20936;-80
2022/04/17 05:06:07;;;;;;;13.20;11.30;;;3.60;99.90;;;;;;2616641;54;20388;-80
2022/04/17 05:08:56;;;;;;;15.17;12.07;;;3.60;99.90;;;;;;2616834;54;20530;-80
2022/04/17 05:11:23;;;;;;;14.17;12.13;;;3.70;99.90;;;;;;2616220;54;20415;-81
2022/04/17 05:13:49;;;;;;;19.50;13.53;;;3.60;99.90;;;;;;2616142;54;20383;-81
2022/04/17 05:16:15;;;;;;;26.37;17.57;;;3.80;99.90;;;;;;2616101;47;20523;-80
2022/04/17 05:18:42;;;;;;;29.43;16.37;;;3.80;99.90;;;;;;2616110;54;20412;-80
2022/04/17 05:21:08;;;;;;;26.90;16.97;;;3.90;99.90;;;;;;2616394;39;20591;-82
2022/04/17 05:23:37;;;;;;;22.27;14.47;;;4.10;99.90;;;;;;2616169;46;20411;-80
2022/04/17 05:26:05;;;;;;;22.63;14.73;;;4.30;99.90;;;;;;2615816;47;20495;-80
2022/04/17 05:28:31;;;;;;;23.33;15.43;;;4.70;99.90;;;;;;2616120;54;20409;-80
2022/04/17 05:30:58;;;;;;;19.60;13.37;;;5.20;99.90;;;;;;2616013;54;21011;-81
2022/04/17 05:33:25;;;;;;;21.20;16.93;;;5.80;99.90;;;;;;2616781;47;20455;-81
2022/04/17 05:35:52;;;;;;;22.63;15.03;;;6.40;94.20;;;;;;2616249;47;20540;-80
2022/04/17 05:38:20;;;;;;;19.83;14.70;;;6.90;80.80;;;;;;2616184;39;20749;-79
2022/04/17 05:40:52;;;;;;;14.73;13.00;;;7.50;62.40;;;;;;2615149;54;20390;-80
2022/04/17 05:43:19;;;;;;;15.73;12.20;;;7.80;52.80;;;;;;2615822;47;20881;-79
2022/04/17 05:45:46;;;;;;;12.23;11.00;;;8.20;45.10;;;;;;2615935;46;20436;-80
2022/04/17 05:48:13;;;;;;;15.27;12.80;;;8.50;41.60;;;;;;2615854;54;20425;-79
2022/04/17 05:50:40;;;;;;;13.77;12.37;;;9.10;38.10;;;;;;2616171;50;21173;-81
2022/04/17 05:53:06;;;;;;;16.37;12.83;;;9.40;29.10;;;;;;2616081;54;20390;-80
2022/04/17 05:55:34;;;;;;;13.93;12.50;;;9.50;27.10;;;;;;2616057;47;20399;-81
2022/04/17 05:58:00;;;;;;;14.80;12.93;;;9.60;26.60;;;;;;2616046;54;20992;-80
2022/04/17 06:00:27;;;;;;;13.97;12.43;;;9.80;25.90;;;;;;2616449;39;20729;-79
2022/04/17 06:02:54;;;;;;;17.97;13.10;;;10.20;23.00;;;;;;2615797;54;20282;-81
2022/04/17 06:05:20;;;;;;;16.57;12.93;;;10.60;19.80;;;;;;2617300;54;20399;-80
2022/04/17 06:07:47;;;;;;;13.27;12.07;;;11.00;17.10;;;;;;2616405;54;20470;-79
2022/04/17 06:10:14;;;;;;;12.77;11.43;;;11.20;14.40;;;;;;2616351;39;20818;-81
2022/04/17 06:12:41;;;;;;;14.00;12.60;;;11.50;10.90;;;;;;2615472;47;20502;-82
2022/04/17 06:15:08;;;;;;;15.03;13.27;;;11.50;7.90;;;;;;2616542;39;20780;-79
2022/04/17 06:17:37;;;;;;;15.87;12.50;;;11.50;5.20;;;;;;2616227;54;20403;-81
2022/04/17 06:20:06;;;;;;;13.07;11.77;;;11.80;4.20;;;;;;2615757;47;20518;-81
2022/04/17 06:22:34;;;;;;;13.67;12.37;;;12.10;1.90;;;;;;2616430;54;20978;-81
2022/04/17 06:25:05;;;;;;;13.80;11.63;;;12.30;1.30;;;;;;2616958;54;20965;-80
2022/04/17 06:27:41;;;;;;;12.47;11.23;;;12.60;1.00;;;;;;2616137;51;20444;-81
2022/04/17 06:30:16;;;;;;;16.70;11.53;;;12.90;1.00;;;;;;2616402;47;20418;-79
2022/04/17 06:32:43;;;;;;;13.73;12.43;;;13.20;1.00;;;;;;2615283;47;20958;-80
2022/04/17 06:35:10;;;;;;;12.83;11.23;;;13.50;1.00;;;;;;2615311;46;21032;-81
2022/04/17 06:38:08;;;;;;;13.40;11.97;;;13.80;1.00;;;;;;2615735;54;20420;-80
2022/04/17 06:40:36;;;;;;;17.60;12.17;;;13.80;1.00;;;;;;2615857;39;20803;-81
2022/04/17 06:43:08;;;;;;;11.73;10.53;;;14.10;1.00;;;;;;2614634;46;20446;-79
2022/04/17 06:45:38;;;;;;;12.33;11.13;;;14.20;1.00;;;;;;2615400;54;21006;-79
2022/04/17 06:48:18;;;;;;;12.63;11.53;;;14.40;1.00;;;;;;2632368;36;20494;-79
2022/04/17 06:50:45;;;;;;;10.47;9.47;;;14.70;1.00;;;;;;2615786;54;20415;-80
2022/04/17 06:53:11;;;;;;;9.20;8.40;;;15.00;1.00;;;;;;2614324;54;20411;-80
2022/04/17 06:55:41;;;;;;;7.07;6.30;;;15.50;1.00;;;;;;2615114;54;20442;-80
2022/04/17 06:58:08;;;;;;;5.43;4.93;;;15.00;1.00;;;;;;2615568;54;20960;-80
2022/04/17 07:00:34;;;;;;;5.23;4.83;;;14.70;1.00;;;;;;2615907;47;20498;-80
2022/04/17 07:03:00;;;;;;;5.10;4.80;;;14.90;1.00;;;;;;2614483;54;20456;-80
2022/04/17 07:05:26;;;;;;;4.40;4.10;;;15.00;1.00;;;;;;2615187;54;20968;-80
2022/04/17 07:08:03;;;;;;;5.23;4.47;;;15.10;1.00;;;;;;2615398;54;20143;-79
2022/04/17 07:10:30;;;;;;;4.87;4.40;;;14.90;1.00;;;;;;2615811;46;20880;-81
2022/04/17 07:12:56;;;;;;;6.90;4.57;;;14.40;1.00;;;;;;2615541;39;20967;-82
2022/04/17 07:15:26;;;;;;;5.20;4.80;;;14.70;1.00;;;;;;2616052;47;20448;-81
2022/04/17 07:17:54;;;;;;;6.20;5.20;;;14.30;1.00;;;;;;2615583;54;20423;-80
2022/04/17 07:20:20;;;;;;;4.30;4.00;;;14.40;1.00;;;;;;2615197;54;21058;-81
2022/04/17 07:22:47;;;;;;;4.87;4.40;;;14.40;1.00;;;;;;2616030;54;20987;-81
2022/04/17 07:25:14;;;;;;;4.47;4.20;;;14.50;1.00;;;;;;2615438;54;20977;-80
2022/04/17 07:27:43;;;;;;;4.80;4.50;;;14.80;1.00;;;;;;2616084;54;20515;-80
2022/04/17 07:30:15;;;;;;;4.47;4.27;;;14.40;1.00;;;;;;2615812;54;20407;-81
2022/04/17 07:32:44;;;;;;;4.47;3.87;;;14.60;1.00;;;;;;2616005;54;20958;-79
2022/04/17 07:35:11;;;;;;;5.13;4.63;;;15.00;1.00;;;;;;2616623;54;20543;-80
2022/04/17 07:37:38;;;;;;;4.17;3.87;;;15.50;1.00;;;;;;2615868;54;20996;-80
2022/04/17 07:40:10;;;;;;;4.10;3.80;;;15.80;1.00;;;;;;2616054;46;20543;-80
2022/04/17 07:43:01;;;;;;;6.37;4.70;;;16.10;1.00;;;;;;2616253;54;20877;-80
2022/04/17 07:45:28;;;;;;;4.97;4.57;;;15.80;1.00;;;;;;2615868;51;20999;-80
2022/04/17 07:47:54;;;;;;;4.23;3.90;;;15.60;1.00;;;;;;2615968;54;20404;-80
2022/04/17 07:50:23;;;;;;;6.27;4.67;;;15.60;1.00;;;;;;2615977;39;20891;-80
2022/04/17 07:52:50;;;;;;;4.77;4.47;;;15.50;1.00;;;;;;2615522;54;20424;-81
2022/04/17 07:55:17;;;;;;;4.40;4.03;;;15.60;1.00;;;;;;2615065;54;21044;-80
2022/04/17 08:00:47;;;;;;;4.60;4.30;;;16.60;1.00;;;;;;2615382;47;20411;-80
2022/04/17 08:03:24;;;;;;;5.30;4.80;;;17.10;1.00;;;;;;2614538;54;20554;-79
2022/04/17 08:05:51;;;;;;;5.03;4.50;;;17.00;1.00;;;;;;2615200;46;20492;-81
2022/04/17 08:08:18;;;;;;;4.83;4.43;;;16.80;1.00;;;;;;2615110;54;21031;-82
2022/04/17 08:10:44;;;;;;;4.67;4.37;;;17.10;1.00;;;;;;2615414;39;20752;-80
2022/04/17 08:13:10;;;;;;;5.23;4.90;;;17.00;1.00;;;;;;2614841;54;20495;-80
2022/04/17 08:15:36;;;;;;;5.13;4.63;;;17.30;1.00;;;;;;2615041;54;20535;-81
2022/04/17 08:18:01;;;;;;;4.87;4.57;;;17.50;1.00;;;;;;2614720;46;20163;-79
2022/04/17 08:20:27;;;;;;;5.73;5.23;;;17.80;1.00;;;;;;2615082;54;20153;-80
2022/04/17 08:22:53;;;;;;;5.43;5.00;;;17.90;1.00;;;;;;2616464;31;20876;-81
2022/04/17 08:25:19;;;;;;;5.00;4.60;;;18.30;1.00;;;;;;2616673;31;20886;-80
2022/04/17 08:27:52;;;;;;;4.97;4.67;;;18.60;1.00;;;;;;2616562;47;20678;-80
2022/04/17 08:30:20;;;;;;;6.83;4.90;;;18.40;1.00;;;;;;2617280;54;20275;-80
2022/04/17 08:32:46;;;;;;;4.73;4.33;;;18.60;1.00;;;;;;2616009;47;20432;-80
2022/04/17 08:35:12;;;;;;;5.00;4.60;;;19.40;1.00;;;;;;2616976;54;20414;-81
2022/04/17 08:37:38;;;;;;;5.10;4.80;;;19.70;1.00;;;;;;2616277;54;21085;-81
2022/04/17 08:40:05;;;;;;;4.17;3.97;;;19.50;1.00;;;;;;2616815;47;20417;-80
2022/04/17 08:42:32;;;;;;;6.10;4.57;;;19.70;1.00;;;;;;2617187;39;20557;-81
2022/04/17 08:44:58;;;;;;;4.43;4.13;;;19.70;1.00;;;;;;2616729;47;20418;-81
2022/04/17 08:47:25;;;;;;;4.60;3.93;;;19.60;1.00;;;;;;2617048;54;20453;-80
2022/04/17 08:49:54;;;;;;;4.20;4.00;;;19.80;1.00;;;;;;2617132;54;20425;-81
2022/04/17 08:52:22;;;;;;;6.00;4.17;;;20.10;1.00;;;;;;2616343;54;20412;-82
2022/04/17 08:54:50;;;;;;;4.90;4.50;;;20.20;1.00;;;;;;2616727;39;20742;-80
2022/04/17 08:57:21;;;;;;;4.30;4.00;;;19.90;1.00;;;;;;2616794;47;20395;-80
2022/04/17 08:59:47;;;;;;;4.07;3.77;;;20.10;1.00;;;;;;2616781;54;20486;-81
2022/04/17 09:02:13;;;;;;;4.50;4.20;;;20.10;1.00;;;;;;2616038;47;21040;-81
2022/04/17 09:04:43;;;;;;;4.70;4.40;;;20.30;1.00;;;;;;2616086;47;20450;-82
2022/04/17 09:07:10;;;;;;;4.17;3.87;;;19.80;1.00;;;;;;2617156;54;20520;-81
2022/04/17 09:09:47;;;;;;;4.57;4.27;;;20.00;1.00;;;;;;2616953;54;20439;-81
2022/04/17 09:12:20;;;;;;;4.50;4.20;;;20.30;1.00;;;;;;2617546;39;20844;-80
2022/04/17 09:14:46;;;;;;;5.07;4.57;;;20.50;1.00;;;;;;2616930;47;20410;-82
2022/04/17 09:17:12;;;;;;;4.40;4.13;;;20.60;1.00;;;;;;2617427;47;20396;-79
2022/04/17 09:19:38;;;;;;;6.10;4.27;;;20.70;1.00;;;;;;2616962;47;20420;-81
2022/04/17 09:22:06;;;;;;;6.30;4.63;;;20.80;1.00;;;;;;2618250;54;20507;-79
2022/04/17 09:24:36;;;;;;;4.83;4.53;;;20.90;1.00;;;;;;2617038;47;20439;-81
2022/04/17 09:27:03;;;;;;;4.53;4.30;;;20.50;1.00;;;;;;2616928;54;21003;-79
2022/04/17 09:29:35;;;;;;;4.83;4.43;;;19.90;1.00;;;;;;2617115;47;20411;-80
2022/04/17 09:32:12;;;;;;;4.13;3.93;;;20.00;1.00;;;;;;2616664;39;20761;-81
2022/04/17 09:34:47;;;;;;;4.90;4.53;;;20.60;1.00;;;;;;2615073;47;20427;-81
2022/04/17 09:37:15;;;;;;;4.30;4.00;;;21.00;1.00;;;;;;2617227;54;20414;-81
2022/04/17 09:39:42;;;;;;;4.67;3.90;;;21.40;1.00;;;;;;2616641;47;20412;-80
2022/04/17 09:42:08;;;;;;;3.80;3.60;;;21.70;1.00;;;;;;2616078;47;20414;-81
2022/04/17 09:44:48;;;;;;;4.40;4.10;;;21.50;1.00;;;;;;2616438;54;20483;-79
2022/04/17 09:47:20;;;;;;;4.30;3.93;;;21.30;1.00;;;;;;2616585;54;20425;-78
2022/04/17 09:50:01;;;;;;;4.07;3.77;;;21.40;1.00;;;;;;2615909;47;20978;-81
2022/04/17 09:52:33;;;;;;;5.90;4.40;;;21.70;1.00;;;;;;2616171;49;20984;-80
2022/04/17 09:55:01;;;;;;;4.40;4.03;;;21.70;1.00;;;;;;2616999;54;20960;-81
2022/04/17 09:57:34;;;;;;;4.40;4.20;;;21.60;1.00;;;;;;2616718;54;20415;-80
2022/04/17 10:00:15;;;;;;;4.10;3.80;;;21.50;1.00;;;;;;2616336;47;20526;-81
2022/04/17 10:02:46;;;;;;;3.90;3.67;;;21.60;1.00;;;;;;2616158;47;20443;-81
2022/04/17 10:05:15;;;;;;;4.07;3.87;;;21.00;1.00;;;;;;2616160;47;20422;-80
2022/04/17 10:07:44;;;;;;;4.20;3.90;;;21.20;1.00;;;;;;2616653;54;20387;-79
2022/04/17 10:10:12;;;;;;;4.83;4.53;;;21.10;1.00;;;;;;2617472;39;20895;-80
2022/04/17 10:12:43;;;;;;;4.53;4.23;;;20.80;1.00;;;;;;2616238;54;20429;-80
2022/04/17 10:15:12;;;;;;;5.33;3.80;;;21.40;1.00;;;;;;2616542;47;20411;-80
2022/04/17 10:17:40;;;;;;;4.07;3.77;;;21.80;1.00;;;;;;2616889;54;20399;-80
2022/04/17 10:20:11;;;;;;;4.27;4.00;;;21.70;1.00;;;;;;2616308;47;20432;-80
2022/04/17 10:22:39;;;;;;;4.80;4.50;;;22.10;1.00;;;;;;2616776;54;20468;-80
2022/04/17 10:25:09;;;;;;;4.17;3.97;;;22.40;1.00;;;;;;2617142;54;20416;-79
2022/04/17 10:27:46;;;;;;;4.60;4.30;;;22.00;1.00;;;;;;2616892;47;21336;-80
2022/04/17 10:30:27;;;;;;;4.93;4.53;;;22.20;1.00;;;;;;2615804;47;20469;-81
2022/04/17 10:32:58;;;;;;;4.30;3.90;;;22.30;1.00;;;;;;2616635;54;20446;-81
2022/04/17 10:35:35;;;;;;;4.50;4.20;;;22.20;1.00;;;;;;2616136;54;20415;-80
2022/04/17 10:38:22;;;;;;;3.93;3.73;;;22.10;1.00;;;;;;2616195;47;20424;-80
2022/04/17 10:40:54;;;;;;;4.03;3.83;;;22.40;1.00;;;;;;2615920;47;21002;-80
2022/04/17 10:43:21;;;;;;;4.07;3.87;;;22.30;1.00;;;;;;2616078;47;20435;-80
2022/04/17 10:46:10;;;;;;;5.13;4.23;;;22.30;1.00;;;;;;2616178;47;20414;-82
2022/04/17 10:48:57;;;;;;;4.33;4.03;;;22.70;1.00;;;;;;2615778;54;20403;-81
2022/04/17 10:51:28;;;;;;;4.27;3.97;;;22.70;1.00;;;;;;2616702;54;20523;-80
2022/04/17 10:54:03;;;;;;;4.60;4.30;;;22.80;1.00;;;;;;2615836;54;20512;-81
2022/04/17 10:56:32;;;;;;;4.43;4.13;;;22.60;1.00;;;;;;2616548;54;20596;-81
2022/04/17 10:59:00;;;;;;;3.93;3.73;;;22.90;1.00;;;;;;2616402;54;20403;-80
2022/04/17 11:01:45;;;;;;;4.20;4.00;;;22.30;1.00;;;;;;2617390;54;20498;-83
2022/04/17 11:04:26;;;;;;;4.37;4.17;;;21.50;1.00;;;;;;2617083;54;20455;-81
2022/04/17 11:07:09;;;;;;;4.80;4.40;;;22.20;1.00;;;;;;2616057;47;20419;-79
2022/04/17 11:09:42;;;;;;;4.17;3.87;;;22.60;1.00;;;;;;2615953;54;20509;-82
2022/04/17 11:12:22;;;;;;;4.30;4.00;;;23.20;1.00;;;;;;2615806;54;20399;-81
2022/04/17 11:15:17;;;;;;;3.90;3.70;;;22.70;1.00;;;;;;2616117;46;20433;-80
2022/04/17 11:17:43;;;;;;;3.60;3.30;;;22.10;1.00;;;;;;2615920;46;20423;-81
2022/04/17 11:20:10;;;;;;;3.97;3.67;;;22.40;1.00;;;;;;2616206;47;20430;-80
2022/04/17 11:22:38;;;;;;;3.97;3.67;;;22.60;1.00;;;;;;2615402;54;21006;-80
2022/04/17 11:25:08;;;;;;;4.17;3.90;;;22.50;1.00;;;;;;2615744;54;20538;-79
2022/04/17 11:27:41;;;;;;;4.80;4.50;;;22.50;1.00;;;;;;2615293;47;21385;-80
2022/04/17 11:30:28;;;;;;;4.70;4.40;;;22.30;1.00;;;;;;2616196;46;20442;-81
2022/04/17 11:32:55;;;;;;;4.80;4.50;;;22.40;1.00;;;;;;2615498;31;20895;-79
2022/04/17 11:35:22;;;;;;;4.60;4.40;;;22.90;1.00;;;;;;2616610;39;20812;-81
2022/04/17 11:37:57;;;;;;;4.80;4.50;;;22.80;1.00;;;;;;2615174;54;21021;-80
2022/04/17 11:40:27;;;;;;;4.13;3.83;;;23.00;1.00;;;;;;2615793;54;20977;-79
2022/04/17 11:42:55;;;;;;;4.50;4.10;;;23.30;1.00;;;;;;2614509;47;20415;-80
2022/04/17 11:45:27;;;;;;;4.30;3.90;;;23.20;1.00;;;;;;2614982;47;20432;-80
2022/04/17 11:47:54;;;;;;;4.13;3.83;;;22.40;1.00;;;;;;2615349;54;21004;-80
2022/04/17 11:50:28;;;;;;;3.67;3.47;;;22.60;1.00;;;;;;2615439;54;20412;-81
2022/04/17 11:53:00;;;;;;;4.60;4.23;;;22.40;1.00;;;;;;2615365;46;20457;-80
2022/04/17 11:55:37;;;;;;;3.97;3.73;;;22.80;1.00;;;;;;2615848;47;20428;-79
2022/04/17 11:58:08;;;;;;;4.40;4.10;;;22.90;1.00;;;;;;2615446;47;20950;-80
2022/04/17 12:00:35;;;;;;;4.17;3.93;;;23.20;1.00;;;;;;2615607;39;20859;-81
2022/04/17 12:03:03;;;;;;;4.80;4.50;;;23.20;1.00;;;;;;2615856;47;20968;-80
2022/04/17 12:05:30;;;;;;;4.10;3.80;;;23.40;1.00;;;;;;2616296;54;20415;-80
2022/04/17 12:08:09;;;;;;;4.50;4.20;;;23.60;1.00;;;;;;2616869;39;20841;-80
2022/04/17 12:10:38;;;;;;;4.70;4.30;;;23.80;1.00;;;;;;2615313;39;20958;-80
2022/04/17 12:13:20;;;;;;;3.90;3.70;;;24.10;1.00;;;;;;2615839;39;21127;-79
2022/04/17 12:15:48;;;;;;;4.17;3.97;;;24.50;1.00;;;;;;2615952;47;20421;-80
2022/04/17 12:18:18;;;;;;;4.77;4.40;;;24.10;1.00;;;;;;2616061;54;20969;-80
2022/04/17 12:20:53;;;;;;;4.40;4.10;;;23.70;1.00;;;;;;2616470;54;20465;-79
2022/04/17 12:23:18;;;;;;;4.53;3.97;;;23.60;1.00;;;;;;2614658;54;20437;-80
2022/04/17 12:25:44;;;;;;;4.60;4.40;;;23.80;1.00;;;;;;2615334;54;20419;-80
2022/04/17 12:28:12;;;;;;;4.93;4.70;;;23.90;1.00;;;;;;2616020;54;20156;-80
2022/04/17 12:30:38;;;;;;;5.17;4.57;;;23.70;1.00;;;;;;2616975;54;20422;-79
2022/04/17 12:33:24;;;;;;;5.40;5.00;;;23.50;1.00;;;;;;2616921;39;20828;-79
2022/04/17 12:36:09;;;;;;;5.63;4.87;;;23.40;1.00;;;;;;2635426;36;22258;-79
2022/04/17 12:38:37;;;;;;;5.30;5.00;;;23.30;1.00;;;;;;2615240;54;20952;-80
2022/04/17 12:41:26;;;;;;;5.73;5.00;;;22.90;1.00;;;;;;2615587;54;20415;-80
2022/04/17 12:43:52;;;;;;;4.40;4.10;;;23.20;1.00;;;;;;2616104;51;20434;-80
2022/04/17 12:46:28;;;;;;;5.43;5.03;;;23.50;1.00;;;;;;2616188;39;20915;-80
2022/04/17 12:49:07;;;;;;;5.07;4.77;;;23.60;1.00;;;;;;2616311;39;20839;-80
2022/04/17 12:51:33;;;;;;;5.87;5.43;;;24.10;1.00;;;;;;2615786;54;20423;-80
2022/04/17 12:54:01;;;;;;;5.53;5.07;;;24.00;1.00;;;;;;2615858;39;20810;-80
2022/04/17 12:56:28;;;;;;;7.40;4.90;;;23.80;1.00;;;;;;2616370;54;20436;-81
2022/04/17 12:58:54;;;;;;;4.63;4.43;;;23.80;1.00;;;;;;2616427;54;20399;-81
2022/04/17 13:01:25;;;;;;;4.43;4.13;;;24.00;1.00;;;;;;2615477;54;20454;-80
2022/04/17 13:04:05;;;;;;;4.73;4.43;;;24.30;1.00;;;;;;2615657;47;20183;-79
2022/04/17 13:06:31;;;;;;;5.37;5.07;;;24.10;1.00;;;;;;2615334;54;20444;-80
2022/04/17 13:09:18;;;;;;;5.20;4.70;;;23.40;1.00;;;;;;2615200;47;20432;-80
2022/04/17 13:11:49;;;;;;;4.43;4.03;;;23.60;1.00;;;;;;2615119;47;20643;-80
2022/04/17 13:14:16;;;;;;;8.27;4.30;;;23.70;1.00;;;;;;2614341;47;20428;-79
2022/04/17 13:16:48;;;;;;;5.43;4.67;;;23.60;1.00;;;;;;2614948;54;20419;-80
2022/04/17 13:19:15;;;;;;;5.17;4.77;;;23.70;1.00;;;;;;2614884;39;20929;-79
2022/04/17 13:21:41;;;;;;;5.10;4.70;;;23.70;1.00;;;;;;2615587;39;20841;-80